Oklawaha, Florida
Current Conditions -  °F | °C
As of 6:53 AM on Saturday 25 Oct 2014 (Local Time) from KLEE Reporting Station
Few Clouds Few Clouds  
Wind Chill: 57°   Ceiling: Unl
Heat Index: 57°   Visibility: 10mi
Dew Point: 52°   Wind: 3mph
Humidity: 83%   Direction: 10°N
Pressure: 30"   Gusts: NA
Location:  29.097°N, 81.8543°W
Report Text: KLEE 251053Z 01003KT 10SM FEW044 14/11 A3000 RMK AO2 SLP156 T01390111
Loading
Personal Weather Stations






























Interactive Weather Map
Tropical Storm Tracking
New forecast layout! Learn more

10-Day Weather Forecast

Advertisements
Track Severe Weather on mobile